D/T METAR WX W/DIR W/SPE G/SPE TEMP DEWP
19/03/19 03:50 EGLC 190350Z AUTO 22004KT 9999 BKN037 07/05 Q1025 SW (220°) 4.6mph 7°C 5°C
19/03/19 03:20 EGLC 190320Z AUTO 22004KT 9999 BKN033 OVC044 07/05 Q1025 SW (220°) 4.6mph 7°C 5°C
19/03/19 02:20 EGLC 190220Z AUTO 22004KT 9999 BKN046 07/05 Q1025 SW (220°) 4.6mph 7°C 5°C
19/03/19 01:50 EGLC 190150Z AUTO 21005KT 9999 SCT045 07/05 Q1025 SSW (210°) 5.8mph 7°C 5°C
19/03/19 00:50 EGLC 190050Z AUTO 21004KT 9999 NCD 07/04 Q1025 SSW (210°) 4.6mph 7°C 4°C
19/03/19 00:20 EGLC 190020Z AUTO 22005KT 9999 NCD 07/04 Q1024 SW (220°) 5.8mph 7°C 4°C
18/03/19 23:50 EGLC 182350Z AUTO 21005KT 9999 NCD 07/04 Q1024 SSW (210°) 5.8mph 7°C 4°C
18/03/19 23:20 EGLC 182320Z AUTO 21005KT 9999 NCD 07/04 Q1024 SSW (210°) 5.8mph 7°C 4°C
18/03/19 22:50 EGLC 182250Z AUTO 21004KT 9999 NCD 07/04 Q1024 SSW (210°) 4.6mph 7°C 4°C
18/03/19 22:20 EGLC 182220Z AUTO 22004KT 9999 NCD 08/04 Q1024 SW (220°) 4.6mph 8°C 4°C
18/03/19 21:50 EGLC 182150Z AUTO 24004KT 9999 NCD 08/04 Q1024 WSW (240°) 4.6mph 8°C 4°C
18/03/19 21:20 EGLC 182120Z AUTO 22003KT 9999 NCD 08/04 Q1024 SW (220°) 3.5mph 8°C 4°C
18/03/19 20:50 EGLC 182050Z AUTO 24004KT 9999 SCT036 SCT042 09/04 Q1024 WSW (240°) 4.6mph 9°C 4°C
18/03/19 20:20 EGLC 182020Z AUTO 22005G15KT 190V280 9999 SCT034 09/04 Q1023 SW (220°) 5.8mph 17.3mph 9°C 4°C
18/03/19 19:50 EGLC 181950Z AUTO 22005KT 180V260 9999 NCD 09/04 Q1023 SW (220°) 5.8mph 9°C 4°C
18/03/19 18:50 EGLC 181850Z AUTO 25005KT 9999 NCD 09/03 Q1023 WSW (250°) 5.8mph 9°C 3°C
18/03/19 18:20 EGLC 181820Z AUTO 25007KT 9999 NCD 09/03 Q1022 WSW (250°) 8.1mph 9°C 3°C
18/03/19 17:50 EGLC 181750Z AUTO 27008KT 9999 NCD 10/03 Q1022 W (270°) 9.2mph 10°C 3°C
18/03/19 17:20 EGLC 181720Z AUTO 30007KT 280V340 9999 //////CB 10/02 Q1022 WNW (300°) 8.1mph 10°C 2°C
18/03/19 16:50 EGLC 181650Z AUTO 30007KT 9999 NCD 11/02 Q1021 WNW (300°) 8.1mph 11°C 2°C
18/03/19 16:20 EGLC 181620Z AUTO 29008KT 9999 FEW036 11/03 Q1021 WNW (290°) 9.2mph 11°C 3°C
18/03/19 15:50 EGLC 181550Z AUTO 23006KT 200V260 9999 FEW043/// //////CB 11/02 Q1021 SW (230°) 6.9mph 11°C 2°C
18/03/19 15:20 EGLC 181520Z AUTO 23007KT 9999 SCT042 11/02 Q1021 SW (230°) 8.1mph 11°C 2°C
18/03/19 14:50 EGLC 181450Z AUTO 29006KT 260V330 9999 -RA BKN040 11/02 Q1021 -RA WNW (290°) 6.9mph 11°C 2°C
18/03/19 13:50 EGLC 181350Z AUTO 29010KT 9999 SCT045/// //////TCU 12/01 Q1020 WNW (290°) 11.5mph 12°C 1°C
18/03/19 12:50 EGLC 181250Z AUTO 26008KT 9999 BKN041/// //////TCU 11/02 Q1021 W (260°) 9.2mph 11°C 2°C
18/03/19 12:20 EGLC 181220Z AUTO 27011KT 9999 BKN035 BKN041 11/02 Q1021 W (270°) 12.7mph 11°C 2°C
18/03/19 11:50 EGLC 181150Z AUTO 27008KT 250V310 9999 -RA SCT031 BKN044 10/03 Q1021 -RA W (270°) 9.2mph 10°C 3°C
18/03/19 11:20 EGLC 181120Z AUTO 28009KT 250V320 9999 SCT029 SCT045 10/03 Q1021 W (280°) 10.4mph 10°C 3°C
18/03/19 10:50 EGLC 181050Z AUTO 26008KT 9999 SCT030 BKN037 BKN044 09/03 Q1021 W (260°) 9.2mph 9°C 3°C
18/03/19 09:50 EGLC 180950Z AUTO 28010KT 9999 NCD 09/03 Q1020 W (280°) 11.5mph 9°C 3°C
18/03/19 08:50 EGLC 180850Z AUTO 27008KT 220V300 9999 NCD 08/03 Q1020 W (270°) 9.2mph 8°C 3°C
18/03/19 08:20 EGLC 180820Z AUTO 26009KT 9999 NCD 07/03 Q1020 W (260°) 10.4mph 7°C 3°C
18/03/19 07:50 EGLC 180750Z AUTO 27011KT 9999 NCD 07/02 Q1020 W (270°) 12.7mph 7°C 2°C
18/03/19 07:20 EGLC 180720Z AUTO 26009KT 9999 NCD 06/02 Q1019 W (260°) 10.4mph 6°C 2°C
18/03/19 06:50 EGLC 180650Z AUTO 26008KT 9999 NCD 06/02 Q1019 W (260°) 9.2mph 6°C 2°C
18/03/19 06:20 EGLC 180620Z AUTO 27010KT 9999 NCD 06/02 Q1018 W (270°) 11.5mph 6°C 2°C
18/03/19 05:20 EGLC 180520Z AUTO 27008KT 9999 SCT049 06/02 Q1018 W (270°) 9.2mph 6°C 2°C
18/03/19 04:50 EGLC 180450Z AUTO 28011KT 9999 NCD 07/02 Q1017 W (280°) 12.7mph 7°C 2°C
18/03/19 04:20 EGLC 180420Z AUTO 28011KT 9999 FEW045 06/02 Q1017 W (280°) 12.7mph 6°C 2°C
18/03/19 03:50 EGLC 180350Z AUTO 28010KT 9999 NCD 06/02 Q1017 W (280°) 11.5mph 6°C 2°C
18/03/19 03:20 EGLC 180320Z AUTO 28010KT 9999 NCD 06/02 Q1016 W (280°) 11.5mph 6°C 2°C
18/03/19 02:50 EGLC 180250Z AUTO 27010KT 9999 NCD 07/03 Q1016 W (270°) 11.5mph 7°C 3°C
18/03/19 02:20 EGLC 180220Z AUTO 28011KT 9999 NCD 07/03 Q1016 W (280°) 12.7mph 7°C 3°C
18/03/19 01:20 EGLC 180120Z AUTO 28010KT 9999 NCD 07/03 Q1015 W (280°) 11.5mph 7°C 3°C
18/03/19 00:50 EGLC 180050Z AUTO 28011KT 9999 NCD 07/03 Q1015 W (280°) 12.7mph 7°C 3°C
17/03/19 23:50 EGLC 172350Z AUTO 28011KT 9999 FEW030 07/03 Q1014 W (280°) 12.7mph 7°C 3°C
17/03/19 23:20 EGLC 172320Z AUTO 28012KT 9999 NCD 07/03 Q1014 W (280°) 13.8mph 7°C 3°C
17/03/19 22:50 EGLC 172250Z AUTO 27012KT 9999 NCD 07/03 Q1013 W (270°) 13.8mph 7°C 3°C
17/03/19 22:20 EGLC 172220Z AUTO 28012KT 9999 NCD 07/03 Q1013 W (280°) 13.8mph 7°C 3°C
17/03/19 21:20 EGLC 172120Z AUTO 28010KT 9999 NCD 07/03 Q1012 W (280°) 11.5mph 7°C 3°C
17/03/19 20:50 EGLC 172050Z AUTO 28011KT 9999 FEW045 07/03 Q1012 W (280°) 12.7mph 7°C 3°C
17/03/19 20:20 EGLC 172020Z AUTO 27013KT 9999 NCD 07/03 Q1011 W (270°) 15.0mph 7°C 3°C
17/03/19 19:50 EGLC 171950Z 28012KT 9999 SCT025 07/02 Q1011 W (280°) 13.8mph 7°C 2°C
17/03/19 19:20 EGLC 171920Z AUTO 27017KT 240V300 9999 BKN027 08/02 Q1010 W (270°) 19.6mph 8°C 2°C
17/03/19 18:50 EGLC 171850Z AUTO 26013KT 220V290 9999 -RA FEW036 SCT043 08/02 Q1009 -RA W (260°) 15.0mph 8°C 2°C
17/03/19 18:20 EGLC 171820Z AUTO 25011KT 9999 SCT037 BKN047 08/02 Q1009 WSW (250°) 12.7mph 8°C 2°C
17/03/19 17:50 EGLC 171750Z AUTO VRB03KT 9999 NCD 08/02 Q1009 N (0°) 3.5mph 8°C 2°C
17/03/19 17:20 EGLC 171720Z AUTO 26004KT 230V300 9999 NCD 07/02 Q1009 W (260°) 4.6mph 7°C 2°C
17/03/19 16:50 EGLC 171650Z AUTO 23006KT 210V300 9999 //////CB 07/02 Q1008 SW (230°) 6.9mph 7°C 2°C
17/03/19 15:50 EGLC 171550Z 25015KT 9999 SHRA BKN013CB BKN021 05/02 Q1009 RESHRA SHRA WSW (250°) 17.3mph 5°C 2°C
17/03/19 15:20 EGLC 171520Z 29022KT 270V330 6000 2000E R27/1300 -RA VCTS FEW013CB SCT025 BKN042 05/01 Q1008 RERA VCTS -RA WNW (290°) 25.3mph 5°C 1°C
17/03/19 14:50 EGLC 171450Z AUTO 27012KT 240V300 9999 //////CB 10/01 Q1007 RESHRA W (270°) 13.8mph 10°C 1°C
17/03/19 14:20 EGLC 171420Z 29017KT 9999 SHRA FEW017TCU SCT029 BKN046 08/00 Q1007 RESHRA SHRA WNW (290°) 19.6mph 8°C 0°C
17/03/19 13:50 EGLC 171350Z AUTO 25014KT 220V300 9999 NCD 10/M02 Q1006 WSW (250°) 16.1mph 10°C -2°C
17/03/19 13:20 EGLC 171320Z AUTO 27014KT 9999 FEW049 10/M01 Q1006 W (270°) 16.1mph 10°C -1°C
17/03/19 12:50 EGLC 171250Z AUTO 25014KT 9999 BKN048 10/M02 Q1006 WSW (250°) 16.1mph 10°C -2°C
17/03/19 12:20 EGLC 171220Z AUTO 25017KT 9999 BKN044 10/M02 Q1006 WSW (250°) 19.6mph 10°C -2°C
17/03/19 11:50 EGLC 171150Z AUTO 26015KT 9999 -RA SCT042 BKN049 08/M00 Q1006 -RA W (260°) 17.3mph 8°C 0°C
17/03/19 11:20 EGLC 171120Z AUTO 26015KT 9999 FEW042 09/M00 Q1005 W (260°) 17.3mph 9°C 0°C
17/03/19 10:50 EGLC 171050Z AUTO 27014KT 240V310 9999 -RA SCT036 BKN043 09/00 Q1005 -RA W (270°) 16.1mph 9°C 0°C
17/03/19 10:20 EGLC 171020Z AUTO 27012KT 9999 BKN030 BKN038 08/01 Q1005 W (270°) 13.8mph 8°C 1°C
17/03/19 09:50 EGLC 170950Z AUTO 26013KT 220V290 9999 SCT028 BKN033 BKN040 08/02 Q1004 W (260°) 15.0mph 8°C 2°C
17/03/19 09:20 EGLC 170920Z AUTO 26013KT 9999 BKN027 07/01 Q1004 W (260°) 15.0mph 7°C 1°C
17/03/19 08:50 EGLC 170850Z AUTO 26012KT 9999 FEW025 07/02 Q1004 W (260°) 13.8mph 7°C 2°C
17/03/19 08:20 EGLC 170820Z AUTO 26012KT 9999 SCT021 SCT028 07/02 Q1003 W (260°) 13.8mph 7°C 2°C
17/03/19 07:50 EGLC 170750Z AUTO 25013KT 9999 SCT020 SCT025 06/02 Q1003 WSW (250°) 15.0mph 6°C 2°C
17/03/19 07:20 EGLC 170720Z AUTO 25012KT 9999 SCT020 06/02 Q1002 WSW (250°) 13.8mph 6°C 2°C
17/03/19 06:50 EGLC 170650Z AUTO 25012KT 9999 SCT018 06/02 Q1001 WSW (250°) 13.8mph 6°C 2°C
17/03/19 06:20 EGLC 170620Z AUTO 25011KT 9999 SCT018 BKN022 06/02 Q1001 WSW (250°) 12.7mph 6°C 2°C
17/03/19 05:50 EGLC 170550Z AUTO 25013KT 9999 BKN018 BKN024 06/03 Q1001 WSW (250°) 15.0mph 6°C 3°C
17/03/19 05:20 EGLC 170520Z AUTO 25012KT 9999 SCT018 06/03 Q1000 WSW (250°) 13.8mph 6°C 3°C
17/03/19 04:20 EGLC 170420Z AUTO 25014KT 9999 BKN017 BKN022 07/03 Q0999 WSW (250°) 16.1mph 7°C 3°C
17/03/19 03:50 EGLC 170350Z AUTO 25015KT 9999 BKN017 BKN022 07/04 Q0998 WSW (250°) 17.3mph 7°C 4°C
17/03/19 02:50 EGLC 170250Z AUTO 25014KT 9999 BKN017 BKN022 07/04 Q0998 WSW (250°) 16.1mph 7°C 4°C
17/03/19 02:20 EGLC 170220Z AUTO 25014KT 9999 BKN017/// //////TCU 08/05 Q0997 WSW (250°) 16.1mph 8°C 5°C
17/03/19 01:50 EGLC 170150Z AUTO 25015KT 9999 BKN017 08/05 Q0997 WSW (250°) 17.3mph 8°C 5°C
17/03/19 01:20 EGLC 170120Z AUTO 25013KT 9999 SCT017 BKN021 BKN026 08/05 Q0997 WSW (250°) 15.0mph 8°C 5°C
17/03/19 00:50 EGLC 170050Z AUTO 25014KT 9999 FEW020 BKN047 09/05 Q0997 WSW (250°) 16.1mph 9°C 5°C
17/03/19 00:20 EGLC 170020Z AUTO 26013KT 9999 BKN020 BKN043 09/05 Q0996 W (260°) 15.0mph 9°C 5°C
16/03/19 23:50 EGLC 162350Z AUTO 25014G24KT 9999 -RA SCT014 BKN021 09/07 Q0996 -RA WSW (250°) 16.1mph 27.6mph 9°C 7°C
16/03/19 22:50 EGLC 162250Z AUTO 25013KT 9999 -RA SCT019 BKN039 BKN049 09/07 Q0995 -RA WSW (250°) 15.0mph 9°C 7°C
16/03/19 22:20 EGLC 162220Z AUTO 26017KT 9999 -RA FEW027/// SCT043/// //////CB 09/07 Q0995 RERA -RA W (260°) 19.6mph 9°C 7°C
16/03/19 21:20 EGLC 162120Z AUTO 22015KT 9999 -RA SCT016/// BKN021/// BKN029/// //////CB 11/08 Q0995 -RA SW (220°) 17.3mph 11°C 8°C
16/03/19 20:50 EGLC 162050Z AUTO 22017G27KT 7000 -RA BKN012/// BKN022/// OVC034/// //////TCU 10/08 Q0995 RERA REDZ -RA SW (220°) 19.6mph 31.1mph 10°C 8°C
16/03/19 20:20 EGLC 162020Z AUTO 22018G31KT 6000 -RA BKN013/// BKN019/// BKN024/// //////TCU 10/08 Q0995 -RA SW (220°) 20.7mph 35.7mph 10°C 8°C
16/03/19 19:50 EGLC 161950Z AUTO 22018G29KT 9000 -RA SCT014 BKN019 BKN024 11/08 Q0996 -RA SW (220°) 20.7mph 33.4mph 11°C 8°C
16/03/19 18:50 EGLC 161850Z AUTO 23019G32KT 9999 BKN020 BKN026 11/07 Q0996 SW (230°) 21.9mph 36.8mph 11°C 7°C
16/03/19 18:20 EGLC 161820Z AUTO 23023G39KT 9999 BKN021 OVC028 11/07 Q0997 SW (230°) 26.5mph 44.9mph 11°C 7°C
16/03/19 17:50 EGLC 161750Z AUTO 23022G35KT 9999 BKN021 OVC025 11/07 Q0997 SW (230°) 25.3mph 40.3mph 11°C 7°C
16/03/19 17:20 EGLC 161720Z AUTO 23021G34KT 200V270 9999 OVC023 12/06 Q0998 SW (230°) 24.2mph 39.1mph 12°C 6°C
16/03/19 16:20 EGLC 161620Z AUTO 23022G33KT 190V250 9999 BKN026 OVC039 12/06 Q0998 SW (230°) 25.3mph 38.0mph 12°C 6°C
16/03/19 15:50 EGLC 161550Z AUTO 22020G34KT 190V250 9999 BKN025 OVC040 12/06 Q0999 SW (220°) 23.0mph 39.1mph 12°C 6°C
16/03/19 15:20 EGLC 161520Z AUTO 23022G35KT 190V260 9999 BKN025 OVC032 12/06 Q0999 SW (230°) 25.3mph 40.3mph 12°C 6°C
16/03/19 14:50 EGLC 161450Z AUTO 23020G31KT 180V260 9999 BKN028 OVC033 12/06 Q1000 SW (230°) 23.0mph 35.7mph 12°C 6°C
16/03/19 13:50 EGLC 161350Z AUTO 23021G31KT 9999 BKN024 OVC032 12/06 Q1001 SW (230°) 24.2mph 35.7mph 12°C 6°C
16/03/19 13:20 EGLC 161320Z AUTO 23024G35KT 9999 BKN024 OVC031 12/06 Q1001 SW (230°) 27.6mph 40.3mph 12°C 6°C
16/03/19 12:50 EGLC 161250Z AUTO 23019G32KT 9999 OVC025 12/06 Q1002 SW (230°) 21.9mph 36.8mph 12°C 6°C
16/03/19 12:20 EGLC 161220Z AUTO 23021G35KT 9999 OVC027 13/06 Q1002 SW (230°) 24.2mph 40.3mph 13°C 6°C
16/03/19 11:50 EGLC 161150Z AUTO 24019G32KT 9999 BKN027 OVC034 12/06 Q1003 WSW (240°) 21.9mph 36.8mph 12°C 6°C
16/03/19 11:20 EGLC 161120Z AUTO 24021G34KT 9999 BKN023 OVC031 12/06 Q1003 WSW (240°) 24.2mph 39.1mph 12°C 6°C
16/03/19 10:50 EGLC 161050Z AUTO 23020G32KT 9999 BKN021 OVC027 12/07 Q1003 SW (230°) 23.0mph 36.8mph 12°C 7°C
16/03/19 10:20 EGLC 161020Z AUTO 23020G32KT 9999 SCT025 OVC030 12/06 Q1003 SW (230°) 23.0mph 36.8mph 12°C 6°C
16/03/19 09:50 EGLC 160950Z AUTO 23020G31KT 9999 BKN027 12/06 Q1004 SW (230°) 23.0mph 35.7mph 12°C 6°C
16/03/19 09:20 EGLC 160920Z AUTO 24019G30KT 9999 OVC026 12/06 Q1004 WSW (240°) 21.9mph 34.5mph 12°C 6°C
16/03/19 08:50 EGLC 160850Z AUTO 24017G27KT 9999 SCT019 BKN023 OVC029 12/07 Q1004 WSW (240°) 19.6mph 31.1mph 12°C 7°C
16/03/19 08:20 EGLC 160820Z AUTO 23017G29KT 9999 BKN019 BKN027 OVC031 12/08 Q1004 SW (230°) 19.6mph 33.4mph 12°C 8°C
16/03/19 07:20 EGLC 160720Z AUTO 24015KT 9999 OVC020 12/07 Q1005 WSW (240°) 17.3mph 12°C 7°C
16/03/19 06:50 EGLC 160650Z AUTO 24019G32KT 9999 OVC018 12/07 Q1006 WSW (240°) 21.9mph 36.8mph 12°C 7°C
16/03/19 05:50 EGLC 160550Z AUTO 23016KT 9999 OVC017 12/08 Q1006 SW (230°) 18.4mph 12°C 8°C
16/03/19 05:20 EGLC 160520Z AUTO 23017G27KT 9999 OVC017 11/08 Q1006 SW (230°) 19.6mph 31.1mph 11°C 8°C
16/03/19 04:50 EGLC 160450Z AUTO 23016G26KT 9999 BKN017/// OVC021/// //////CB 11/08 Q1006 SW (230°) 18.4mph 29.9mph 11°C 8°C
16/03/19 03:50 EGLC 160350Z AUTO 24013G23KT 200V260 9999 BKN017 OVC023 12/08 Q1007 WSW (240°) 15.0mph 26.5mph 12°C 8°C
16/03/19 03:20 EGLC 160320Z AUTO 23017G29KT 9999 BKN017 OVC032 12/08 Q1007 SW (230°) 19.6mph 33.4mph 12°C 8°C
16/03/19 02:50 EGLC 160250Z AUTO 23017KT 9999 BKN017 12/09 Q1007 SW (230°) 19.6mph 12°C 9°C
16/03/19 02:20 EGLC 160220Z AUTO 24016G26KT 9999 BKN015 BKN021 12/09 Q1008 WSW (240°) 18.4mph 29.9mph 12°C 9°C
16/03/19 01:50 EGLC 160150Z AUTO 23017KT 9999 BKN014 BKN020 OVC027 12/09 Q1008 SW (230°) 19.6mph 12°C 9°C
16/03/19 01:20 EGLC 160120Z AUTO 23014KT 9999 BKN013 OVC020 12/10 Q1008 SW (230°) 16.1mph 12°C 10°C
16/03/19 00:50 EGLC 160050Z AUTO 23012KT 190V260 9999 BKN010 OVC019 12/10 Q1009 SW (230°) 13.8mph 12°C 10°C
16/03/19 00:20 EGLC 160020Z AUTO 23010KT 7000 -RA BKN008 OVC013 11/10 Q1009 -RA SW (230°) 11.5mph 11°C 10°C
15/03/19 23:50 EGLC 152350Z AUTO 23006KT 8000 -RA BKN006 OVC010 11/10 Q1010 -RA SW (230°) 6.9mph 11°C 10°C
15/03/19 23:20 EGLC 152320Z AUTO 24008KT 3500 -DZ BKN006 OVC014 11/10 Q1011 REDZ -DZ WSW (240°) 9.2mph 11°C 10°C
15/03/19 22:50 EGLC 152250Z AUTO 24010KT 2900 DZ BKN007 OVC020 11/10 Q1011 RERA DZ WSW (240°) 11.5mph 11°C 10°C
15/03/19 22:20 EGLC 152220Z AUTO 25010KT 9999 BKN010 BKN024 OVC038 11/09 Q1011 WSW (250°) 11.5mph 11°C 9°C
15/03/19 21:50 EGLC 152150Z AUTO 24012KT 9999 FEW016 BKN029 BKN035 11/08 Q1010 WSW (240°) 13.8mph 11°C 8°C
15/03/19 21:20 EGLC 152120Z AUTO 25011KT 9999 FEW027 SCT038 BKN048 12/07 Q1010 WSW (250°) 12.7mph 12°C 7°C
15/03/19 20:50 EGLC 152050Z AUTO 25012KT 9999 FEW027 BKN046 12/07 Q1010 WSW (250°) 13.8mph 12°C 7°C
15/03/19 20:20 EGLC 152020Z AUTO 26012KT 9999 SCT027 BKN044 12/07 Q1010 W (260°) 13.8mph 12°C 7°C
15/03/19 19:50 EGLC 151950Z AUTO 26014KT 9999 SCT028 BKN047 13/07 Q1010 W (260°) 16.1mph 13°C 7°C
15/03/19 19:20 EGLC 151920Z AUTO 26012KT 240V300 9999 BKN027 OVC049 13/07 Q1009 W (260°) 13.8mph 13°C 7°C
15/03/19 18:50 EGLC 151850Z AUTO 25013KT 9999 BKN027 BKN032 BKN039 13/07 Q1009 WSW (250°) 15.0mph 13°C 7°C
15/03/19 18:20 EGLC 151820Z AUTO 25016KT 9999 BKN028 BKN037 14/08 Q1008 WSW (250°) 18.4mph 14°C 8°C
15/03/19 17:50 EGLC 151750Z AUTO 25017G29KT 9999 BKN030 OVC041 14/08 Q1008 WSW (250°) 19.6mph 33.4mph 14°C 8°C
15/03/19 16:50 EGLC 151650Z AUTO 26017G30KT 9999 FEW031 BKN038 14/08 Q1007 W (260°) 19.6mph 34.5mph 14°C 8°C